createdAt,value
2018-10-04T00:00:22.465Z,3.50
2018-10-04T00:02:49.876Z,3.93
2018-10-04T00:05:17.269Z,4.00
2018-10-04T00:07:44.694Z,5.27
2018-10-04T00:10:12.043Z,3.60
2018-10-04T00:12:39.401Z,3.63
2018-10-04T00:15:13.994Z,3.43
2018-10-04T00:17:41.620Z,3.37
2018-10-04T00:20:09.062Z,4.10
2018-10-04T00:22:36.450Z,4.00
2018-10-04T00:25:04.021Z,6.53
2018-10-04T00:27:31.469Z,3.50
2018-10-04T00:29:58.847Z,3.83
2018-10-04T00:32:26.265Z,4.00
2018-10-04T00:34:53.740Z,3.70
2018-10-04T00:37:21.149Z,4.03
2018-10-04T00:39:48.601Z,4.13
2018-10-04T00:42:16.069Z,3.80
2018-10-04T00:44:43.518Z,3.67
2018-10-04T00:47:17.660Z,4.00
2018-10-04T00:49:46.464Z,4.50
2018-10-04T00:52:13.821Z,7.63
2018-10-04T00:54:41.396Z,4.37
2018-10-04T00:57:08.831Z,4.77
2018-10-04T00:59:36.209Z,6.20
2018-10-04T01:02:03.584Z,7.43
2018-10-04T01:04:31.108Z,5.50
2018-10-04T01:06:58.589Z,7.20
2018-10-04T01:09:25.993Z,6.60
2018-10-04T01:11:53.377Z,5.40
2018-10-04T01:14:20.757Z,4.20
2018-10-04T01:16:48.239Z,4.67
2018-10-04T01:19:15.691Z,2.93
2018-10-04T01:21:43.073Z,4.43
2018-10-04T01:24:10.547Z,3.83
2018-10-04T01:26:38.034Z,6.43
2018-10-04T01:29:05.504Z,3.63
2018-10-04T01:31:33.082Z,4.30
2018-10-04T01:34:00.472Z,5.93
2018-10-04T01:36:27.813Z,4.93
2018-10-04T01:38:55.159Z,4.07
2018-10-04T01:41:22.544Z,9.93
2018-10-04T01:43:49.995Z,4.00
2018-10-04T01:46:17.476Z,7.20
2018-10-04T01:48:44.855Z,7.63
2018-10-04T01:51:12.186Z,4.00
2018-10-04T01:53:39.524Z,4.10
2018-10-04T01:56:07.000Z,3.50
2018-10-04T01:58:34.413Z,6.30
2018-10-04T02:01:01.916Z,4.67
2018-10-04T02:03:29.270Z,4.07
2018-10-04T02:05:57.018Z,3.53
2018-10-04T02:08:24.619Z,4.03
2018-10-04T02:10:52.056Z,7.47
2018-10-04T02:13:19.490Z,5.03
2018-10-04T02:15:46.925Z,3.53
2018-10-04T02:18:14.325Z,3.87
2018-10-04T02:20:41.775Z,8.67
2018-10-04T02:23:09.261Z,15.73
2018-10-04T02:25:36.659Z,8.47
2018-10-04T02:28:04.133Z,6.17
2018-10-04T07:14:33.884Z,9.80
2018-10-04T07:17:01.326Z,9.80
2018-10-04T07:19:28.800Z,9.40
2018-10-04T07:21:56.270Z,9.70
2018-10-04T07:24:23.693Z,8.87
2018-10-04T07:26:51.182Z,9.43
2018-10-04T07:29:18.710Z,9.00
2018-10-04T07:31:46.207Z,9.87
2018-10-04T07:34:13.636Z,9.70
2018-10-04T07:36:41.138Z,8.73
2018-10-04T07:39:09.508Z,7.83
2018-10-04T07:41:36.976Z,9.13
2018-10-04T07:44:04.508Z,7.93
2018-10-04T07:46:31.897Z,8.40
2018-10-04T07:48:59.243Z,10.03
2018-10-04T07:51:26.683Z,10.13
2018-10-04T07:53:54.120Z,8.03
2018-10-04T07:56:21.555Z,9.90
2018-10-04T07:58:48.990Z,9.80
2018-10-04T08:01:16.471Z,9.87
2018-10-04T08:03:43.928Z,11.37
2018-10-04T08:06:11.445Z,10.80
2018-10-04T08:08:38.813Z,14.30
2018-10-04T08:11:06.200Z,11.30
2018-10-04T08:13:33.631Z,11.73
2018-10-04T08:16:01.111Z,11.80
2018-10-04T08:18:28.490Z,14.20
2018-10-04T08:20:55.903Z,14.20
2018-10-04T08:23:23.304Z,12.57
2018-10-04T08:25:50.778Z,13.07
2018-10-04T08:28:18.233Z,12.93
2018-10-04T08:30:45.731Z,12.50
2018-10-04T08:33:13.116Z,13.37
2018-10-04T08:35:40.466Z,10.13
2018-10-04T08:38:07.864Z,12.47
2018-10-04T08:40:35.325Z,13.37
2018-10-04T08:43:02.725Z,14.50
2018-10-04T08:45:30.160Z,16.93
2018-10-04T08:47:57.610Z,13.70
2018-10-04T08:50:25.007Z,12.80
2018-10-04T08:52:53.203Z,14.13
2018-10-04T08:55:26.167Z,14.27
2018-10-04T08:58:02.256Z,14.27
2018-10-04T09:00:30.734Z,16.87
2018-10-04T09:03:00.356Z,15.20
2018-10-04T09:05:27.770Z,17.50
2018-10-04T09:07:55.368Z,15.33
2018-10-04T09:10:22.843Z,15.30
2018-10-04T09:12:50.340Z,40.53
2018-10-04T09:15:17.725Z,14.67
2018-10-04T09:17:45.165Z,14.97
2018-10-04T09:20:12.634Z,16.27
2018-10-04T09:22:40.063Z,14.67
2018-10-04T09:25:07.727Z,24.10
2018-10-04T09:27:35.268Z,18.67
2018-10-04T09:30:08.461Z,26.03
2018-10-04T09:32:35.946Z,21.70
2018-10-04T09:35:03.469Z,28.57
2018-10-04T09:37:30.844Z,25.13
2018-10-04T09:39:58.313Z,20.60
2018-10-04T09:42:38.696Z,25.17
2018-10-04T09:45:08.695Z,21.10
2018-10-04T09:47:36.068Z,26.07
2018-10-04T09:50:03.730Z,19.70
2018-10-04T09:52:31.216Z,21.20
2018-10-04T09:55:04.275Z,21.40
2018-10-04T09:57:32.377Z,20.37
2018-10-04T10:00:03.333Z,18.83
2018-10-04T10:02:37.332Z,16.73
2018-10-04T10:05:05.309Z,19.20
2018-10-04T10:07:32.824Z,18.50
2018-10-04T10:10:00.316Z,16.40
2018-10-04T10:12:27.770Z,18.53
2018-10-04T10:14:55.257Z,19.50
2018-10-04T10:17:22.720Z,16.90
2018-10-04T10:19:50.168Z,18.00
2018-10-04T10:22:17.644Z,18.30
2018-10-04T10:24:45.040Z,17.50
2018-10-04T10:27:12.665Z,17.07
2018-10-04T10:29:40.076Z,19.20
2018-10-04T10:32:07.638Z,19.33
2018-10-04T10:34:35.024Z,20.10
2018-10-04T10:37:02.474Z,20.17
2018-10-04T10:39:29.899Z,20.10
2018-10-04T10:41:57.338Z,23.10
2018-10-04T10:44:24.746Z,17.63
2018-10-04T10:46:52.171Z,19.83
2018-10-04T10:49:19.631Z,15.67
2018-10-04T10:51:47.192Z,14.83
2018-10-04T10:54:14.670Z,18.13
2018-10-04T10:56:42.101Z,19.53
2018-10-04T11:03:54.930Z,14.63
2018-10-04T11:06:22.380Z,16.77
2018-10-04T11:08:49.922Z,14.83
2018-10-04T11:11:17.434Z,10.33
2018-10-04T11:13:44.904Z,19.83
2018-10-04T11:16:12.444Z,15.30
2018-10-04T11:18:39.888Z,11.27
2018-10-04T11:21:07.296Z,14.03
2018-10-04T11:23:34.743Z,21.33
2018-10-04T11:26:02.343Z,14.83
2018-10-04T11:28:29.790Z,15.80
2018-10-04T11:30:57.416Z,20.53
2018-10-04T11:33:24.882Z,16.27
2018-10-04T11:35:52.360Z,15.47
2018-10-04T11:38:19.904Z,13.80
2018-10-04T11:40:47.375Z,11.33
2018-10-04T11:43:17.060Z,10.47
2018-10-04T11:45:45.445Z,11.80
2018-10-04T11:48:17.330Z,10.87
2018-10-04T11:50:44.946Z,12.30
2018-10-04T11:53:12.444Z,9.17
2018-10-04T11:55:39.907Z,9.77
2018-10-04T11:58:07.505Z,14.50
2018-10-04T12:00:35.008Z,11.50
2018-10-04T12:03:02.488Z,13.53
2018-10-04T12:05:29.996Z,11.97
2018-10-04T12:07:57.352Z,14.07
2018-10-04T12:10:25.811Z,20.20
2018-10-04T12:12:53.366Z,15.63
2018-10-04T12:15:20.675Z,18.00
2018-10-04T12:17:48.209Z,15.10
2018-10-04T12:20:15.704Z,15.97
2018-10-04T12:22:43.162Z,10.93
2018-10-04T12:25:10.661Z,15.30
2018-10-04T12:27:38.022Z,10.83
2018-10-04T12:30:05.744Z,18.23
2018-10-04T12:32:33.257Z,16.50
2018-10-04T12:35:00.745Z,15.23
2018-10-04T12:37:28.189Z,19.70
2018-10-04T12:39:55.580Z,13.20
2018-10-04T12:42:23.176Z,8.13
2018-10-04T12:44:50.577Z,12.83
2018-10-04T12:47:17.991Z,13.97
2018-10-04T12:49:45.396Z,8.83
2018-10-04T12:52:12.836Z,15.00
2018-10-04T12:54:40.310Z,11.63
2018-10-04T12:57:07.725Z,12.13
2018-10-04T12:59:35.140Z,10.10
2018-10-04T13:02:02.583Z,10.13
2018-10-04T13:04:29.985Z,9.13
2018-10-04T13:06:57.568Z,9.43
2018-10-04T13:09:24.900Z,11.13
2018-10-04T13:11:52.363Z,13.03
2018-10-04T13:14:19.873Z,12.20
2018-10-04T13:16:47.282Z,9.73
2018-10-04T13:19:14.725Z,16.23
2018-10-04T13:21:42.282Z,21.33
2018-10-04T13:24:09.678Z,17.77
2018-10-04T13:26:37.168Z,14.60
2018-10-04T13:29:04.589Z,11.10
2018-10-04T13:31:32.072Z,15.60
2018-10-04T13:33:59.526Z,14.17
2018-10-04T13:36:26.869Z,10.70
2018-10-04T13:38:54.356Z,16.60
2018-10-04T13:41:21.812Z,9.03
2018-10-04T13:43:49.192Z,16.33
2018-10-04T13:46:16.780Z,15.07
2018-10-04T13:48:44.123Z,15.83
2018-10-04T13:51:11.719Z,27.27
2018-10-04T13:53:39.082Z,13.13
2018-10-04T13:56:06.829Z,9.23
2018-10-04T13:58:34.280Z,10.57
2018-10-04T14:01:01.715Z,11.73
2018-10-04T14:03:29.175Z,17.60
2018-10-04T14:05:56.756Z,13.53
2018-10-04T14:08:24.174Z,13.90
2018-10-04T14:10:51.632Z,7.47
2018-10-04T14:13:19.065Z,17.33
2018-10-04T14:15:46.480Z,15.60
2018-10-04T14:18:13.896Z,11.47
2018-10-04T14:20:41.264Z,11.50
2018-10-04T14:23:08.723Z,9.30
2018-10-04T14:25:36.130Z,7.97
2018-10-04T14:28:03.630Z,15.23
2018-10-04T14:30:31.078Z,13.47
2018-10-04T14:32:58.448Z,15.37
2018-10-04T14:35:25.894Z,9.40
2018-10-04T14:37:53.359Z,9.80
2018-10-04T14:40:20.829Z,10.03
2018-10-04T14:42:48.441Z,5.07
2018-10-04T14:45:15.896Z,13.77
2018-10-04T14:47:43.252Z,13.90
2018-10-04T14:50:10.730Z,11.37
2018-10-04T14:52:38.251Z,9.60
2018-10-04T14:55:05.798Z,10.30
2018-10-04T14:57:33.414Z,10.23
2018-10-04T15:00:00.842Z,7.73
2018-10-04T15:02:28.255Z,10.13
2018-10-04T15:04:55.691Z,11.80
2018-10-04T15:07:23.193Z,11.03
2018-10-04T15:09:50.638Z,14.30
2018-10-04T15:12:18.095Z,7.77
2018-10-04T15:14:45.553Z,8.50
2018-10-04T15:17:13.045Z,7.73
2018-10-04T15:19:40.470Z,7.50
2018-10-04T15:22:08.011Z,9.00
2018-10-04T15:24:35.371Z,7.70
2018-10-04T15:27:02.828Z,7.60
2018-10-04T15:29:30.320Z,5.83
2018-10-04T15:31:57.721Z,9.93
2018-10-04T15:34:25.208Z,10.93
2018-10-04T15:36:52.622Z,12.40
2018-10-04T15:39:20.153Z,8.73
2018-10-04T15:41:47.708Z,6.70
2018-10-04T15:44:15.122Z,6.70
2018-10-04T15:46:42.673Z,10.77
2018-10-04T15:49:10.009Z,13.20
2018-10-04T15:51:37.419Z,7.37
2018-10-04T15:54:04.904Z,11.10
2018-10-04T15:56:32.356Z,10.23
2018-10-04T15:58:59.778Z,13.93
2018-10-04T16:01:27.327Z,7.00
2018-10-04T16:03:54.797Z,6.00
2018-10-04T16:06:22.155Z,9.93
2018-10-04T16:08:49.687Z,9.00
2018-10-04T16:11:17.472Z,8.90
2018-10-04T16:13:44.985Z,7.73
2018-10-04T16:16:12.328Z,8.20
2018-10-04T16:18:39.840Z,8.00
2018-10-04T16:21:07.347Z,6.80
2018-10-04T16:23:34.806Z,10.23
2018-10-04T16:26:02.998Z,5.77
2018-10-04T16:28:30.704Z,10.40
2018-10-04T16:30:58.208Z,8.27
2018-10-04T16:33:25.553Z,6.93
2018-10-04T16:35:52.951Z,14.27
2018-10-04T16:38:20.436Z,7.80
2018-10-04T16:40:47.873Z,10.83
2018-10-04T16:43:15.390Z,7.90
2018-10-04T16:45:42.918Z,6.20
2018-10-04T16:48:10.379Z,6.90
2018-10-04T16:50:37.734Z,7.70
2018-10-04T16:53:05.432Z,8.87
2018-10-04T16:55:32.896Z,12.13
2018-10-04T16:58:00.349Z,16.43
2018-10-04T17:00:27.786Z,7.83
2018-10-04T17:02:55.312Z,6.33
2018-10-04T17:05:22.823Z,9.13
2018-10-04T17:07:50.186Z,6.53
2018-10-04T17:10:17.635Z,11.23
2018-10-04T17:12:45.195Z,12.10
2018-10-04T17:15:12.672Z,8.37
2018-10-04T17:17:40.111Z,9.73
2018-10-04T17:20:07.792Z,7.17
2018-10-04T17:22:35.389Z,10.27
2018-10-04T17:25:02.843Z,12.00
2018-10-04T17:27:30.294Z,8.60
2018-10-04T17:29:57.794Z,8.60
2018-10-04T17:32:25.216Z,13.27
2018-10-04T17:34:52.689Z,11.10
2018-10-04T17:37:20.164Z,10.57
2018-10-04T17:39:47.637Z,11.87
2018-10-04T17:42:15.100Z,32.53
2018-10-04T17:44:42.500Z,13.33
2018-10-04T17:47:09.902Z,6.33
2018-10-04T17:49:37.260Z,17.77
2018-10-04T17:52:04.736Z,9.40
2018-10-04T17:54:32.416Z,11.00
2018-10-04T17:56:59.853Z,9.40
2018-10-04T17:59:27.292Z,9.80
2018-10-04T18:01:54.827Z,5.10
2018-10-04T18:04:22.342Z,13.50
2018-10-04T18:06:49.756Z,20.93
2018-10-04T18:09:17.102Z,15.30
2018-10-04T18:11:44.618Z,15.07
2018-10-04T18:14:11.997Z,9.90
2018-10-04T18:16:39.432Z,8.97
2018-10-04T18:19:06.826Z,11.60
2018-10-04T18:21:34.329Z,14.90
2018-10-04T18:24:01.740Z,8.77
2018-10-04T18:26:29.164Z,10.40
2018-10-04T18:28:56.516Z,12.83
2018-10-04T18:31:23.871Z,6.70
2018-10-04T18:33:51.326Z,8.93
2018-10-04T18:36:18.766Z,12.47
2018-10-04T18:38:46.575Z,11.67
2018-10-04T18:41:14.099Z,7.87
2018-10-04T18:43:41.597Z,7.03
2018-10-04T18:46:08.972Z,13.30
2018-10-04T18:48:36.469Z,14.93
2018-10-04T18:51:03.941Z,18.23
2018-10-04T18:53:31.361Z,11.60
2018-10-04T18:55:58.769Z,12.47
2018-10-04T18:58:26.255Z,11.37
2018-10-04T19:00:53.736Z,17.30
2018-10-04T19:03:21.196Z,15.80
2018-10-04T19:05:48.723Z,11.53
2018-10-04T19:08:16.091Z,11.97
2018-10-04T19:10:43.502Z,17.70
2018-10-04T19:13:10.923Z,11.80
2018-10-04T19:15:38.633Z,12.43
2018-10-04T19:18:06.117Z,11.77
2018-10-04T19:20:33.695Z,11.13
2018-10-04T19:23:01.208Z,8.53
2018-10-04T19:25:35.504Z,12.93
2018-10-04T19:28:02.982Z,16.23
2018-10-04T19:30:30.451Z,11.70
2018-10-04T19:32:57.948Z,9.50
2018-10-04T19:35:25.399Z,9.60
2018-10-04T19:37:52.909Z,10.03
2018-10-04T19:40:20.703Z,10.03
2018-10-04T19:42:48.214Z,8.37
2018-10-04T19:45:15.595Z,6.73
2018-10-04T19:47:43.056Z,12.50
2018-10-04T19:50:10.590Z,11.17
2018-10-04T19:52:38.024Z,11.53
2018-10-04T19:55:05.715Z,12.00
2018-10-04T19:57:33.246Z,13.33
2018-10-04T20:00:01.663Z,10.03
2018-10-04T20:02:29.128Z,8.13
2018-10-04T20:04:56.562Z,6.67
2018-10-04T20:07:24.341Z,7.13
2018-10-04T20:09:51.962Z,7.13
2018-10-04T20:12:19.604Z,6.93
2018-10-04T20:14:47.156Z,10.20
2018-10-04T20:17:15.655Z,13.40
2018-10-04T20:19:43.166Z,8.90
2018-10-04T20:22:13.071Z,6.43
2018-10-04T20:24:40.510Z,5.27
2018-10-04T20:27:08.128Z,8.13
2018-10-04T20:29:35.595Z,13.33
2018-10-04T20:32:02.994Z,9.83
2018-10-04T20:34:30.456Z,12.23
2018-10-04T20:36:57.906Z,10.37
2018-10-04T20:39:25.320Z,10.93
2018-10-04T20:41:52.711Z,8.20
2018-10-04T20:44:20.141Z,9.37
2018-10-04T20:46:47.500Z,7.17
2018-10-04T20:49:14.950Z,5.40
2018-10-04T20:51:42.426Z,4.23
2018-10-04T20:54:09.830Z,5.40
2018-10-04T20:56:37.358Z,5.50
2018-10-04T20:59:06.715Z,5.70
2018-10-04T21:01:34.593Z,10.40
2018-10-04T21:04:02.024Z,14.77
2018-10-04T21:06:29.504Z,9.97
2018-10-04T21:08:56.942Z,8.10
2018-10-04T21:11:24.424Z,5.07
2018-10-04T21:13:51.769Z,5.70
2018-10-04T21:16:19.289Z,7.87
2018-10-04T21:18:46.724Z,6.60
2018-10-04T21:21:14.159Z,6.30
2018-10-04T21:23:41.588Z,5.30
2018-10-04T21:26:08.977Z,4.27
2018-10-04T21:28:36.423Z,6.37
2018-10-04T21:31:03.864Z,4.83
2018-10-04T21:33:31.275Z,6.20
2018-10-04T21:35:58.778Z,6.93
2018-10-04T21:38:26.192Z,5.07
2018-10-04T21:40:53.626Z,8.13
2018-10-04T21:43:21.120Z,8.67
2018-10-04T21:45:48.743Z,7.83
2018-10-04T21:48:16.170Z,10.43
2018-10-04T21:50:43.787Z,15.63
2018-10-04T21:53:11.282Z,5.93
2018-10-04T21:55:38.712Z,9.10
2018-10-04T21:58:06.187Z,17.13
2018-10-04T22:00:33.704Z,15.57
2018-10-04T22:03:01.130Z,9.53
2018-10-04T22:05:29.098Z,10.87
2018-10-04T22:07:56.746Z,10.70
2018-10-04T22:10:24.136Z,5.80
2018-10-04T22:12:51.616Z,7.13
2018-10-04T22:15:18.963Z,11.10
2018-10-04T22:17:46.894Z,6.37
2018-10-04T22:20:14.274Z,7.70
2018-10-04T22:22:41.636Z,7.17
2018-10-04T22:25:09.104Z,9.50
2018-10-04T22:27:36.467Z,8.33
2018-10-04T22:30:04.025Z,8.00
2018-10-04T22:32:31.472Z,12.70
2018-10-04T22:34:58.911Z,7.33
2018-10-04T22:37:26.328Z,11.77
2018-10-04T22:39:53.880Z,11.77
2018-10-04T22:42:21.269Z,8.27
2018-10-04T22:44:48.651Z,7.63
2018-10-04T22:47:16.033Z,11.07
2018-10-04T22:49:43.433Z,9.70
2018-10-04T22:52:10.968Z,9.63
2018-10-04T22:54:38.332Z,5.70
2018-10-04T22:57:05.766Z,5.53
2018-10-04T22:59:33.192Z,4.50
2018-10-04T23:02:00.667Z,9.07
2018-10-04T23:04:28.150Z,10.93
2018-10-04T23:06:55.600Z,8.20
2018-10-04T23:09:22.957Z,9.17
2018-10-04T23:11:50.528Z,7.30
2018-10-04T23:14:17.972Z,10.30
2018-10-04T23:16:45.453Z,17.23
2018-10-04T23:19:12.943Z,6.07
2018-10-04T23:21:40.356Z,14.03
2018-10-04T23:24:07.845Z,8.00
2018-10-04T23:26:35.355Z,6.27
2018-10-04T23:29:02.864Z,10.70
2018-10-04T23:31:30.320Z,8.80
2018-10-04T23:33:57.772Z,5.10
2018-10-04T23:36:25.236Z,8.77
2018-10-04T23:38:52.684Z,6.53
2018-10-04T23:41:20.146Z,6.23
2018-10-04T23:43:47.581Z,6.93
2018-10-04T23:46:15.032Z,6.50
2018-10-04T23:48:42.485Z,5.47
2018-10-04T23:51:10.013Z,10.20
2018-10-04T23:53:37.553Z,6.93
2018-10-04T23:56:05.097Z,8.60
2018-10-04T23:58:32.556Z,15.63
